createdAt,value
2017-09-23T00:02:32.649Z,92.20
2017-09-23T00:05:35.001Z,92.20
2017-09-23T00:08:37.041Z,92.10
2017-09-23T00:11:39.447Z,92.10
2017-09-23T00:14:41.446Z,92.00
2017-09-23T00:17:43.818Z,92.00
2017-09-23T00:20:45.868Z,91.90
2017-09-23T00:23:48.324Z,91.90
2017-09-23T00:26:50.374Z,91.90
2017-09-23T00:29:52.741Z,91.80
2017-09-23T00:32:54.878Z,91.80
2017-09-23T00:35:57.255Z,91.80
2017-09-23T00:38:59.490Z,91.80
2017-09-23T00:42:01.900Z,91.70
2017-09-23T00:45:03.859Z,91.70
2017-09-23T00:48:06.982Z,92.00
2017-09-23T00:51:08.911Z,91.70
2017-09-23T00:54:11.302Z,91.80
2017-09-23T00:57:13.248Z,91.90
2017-09-23T01:00:15.604Z,91.90
2017-09-23T01:03:17.555Z,91.90
2017-09-23T01:06:20.103Z,91.90
2017-09-23T01:09:22.047Z,92.00
2017-09-23T01:12:24.500Z,92.10
2017-09-23T01:15:26.443Z,92.10
2017-09-23T01:18:28.815Z,92.10
2017-09-23T01:21:30.750Z,92.10
2017-09-23T01:24:33.128Z,92.20
2017-09-23T01:27:35.068Z,92.20
2017-09-23T01:30:38.240Z,92.20
2017-09-23T01:33:40.194Z,92.20
2017-09-23T01:36:42.553Z,92.20
2017-09-23T01:39:44.494Z,92.30
2017-09-23T01:42:46.851Z,92.30
2017-09-23T01:45:48.798Z,92.30
2017-09-23T01:48:51.169Z,92.30
2017-09-23T01:51:53.198Z,92.20
2017-09-23T01:54:55.556Z,92.20
2017-09-23T01:57:57.520Z,92.30
2017-09-23T02:00:59.888Z,92.30
2017-09-23T02:04:01.986Z,92.30
2017-09-23T02:07:05.090Z,92.40
2017-09-23T02:10:07.049Z,92.30
2017-09-23T02:13:09.404Z,92.60
2017-09-23T02:16:11.348Z,92.30
2017-09-23T02:19:13.701Z,92.30
2017-09-23T02:22:15.672Z,92.30
2017-09-23T02:25:18.035Z,92.30
2017-09-23T02:28:19.963Z,92.30
2017-09-23T02:31:22.332Z,92.30
2017-09-23T02:34:24.427Z,92.90
2017-09-23T02:37:27.564Z,92.90
2017-09-23T02:40:29.608Z,92.90
2017-09-23T02:43:31.959Z,92.90
2017-09-23T02:46:33.887Z,92.90
2017-09-23T02:49:36.170Z,93.00
2017-09-23T02:52:38.156Z,93.00
2017-09-23T02:55:40.475Z,93.00
2017-09-23T02:58:42.507Z,93.00
2017-09-23T03:01:44.980Z,93.00
2017-09-23T03:04:46.940Z,93.00
2017-09-23T03:07:49.399Z,92.90
2017-09-23T03:10:51.432Z,92.90
2017-09-23T03:13:53.808Z,92.90
2017-09-23T03:16:55.751Z,92.90
2017-09-23T03:19:58.112Z,92.90
2017-09-23T03:23:00.155Z,92.90
2017-09-23T03:26:02.446Z,92.90
2017-09-23T03:29:04.404Z,93.00
2017-09-23T03:32:06.813Z,93.00
2017-09-23T03:35:08.844Z,93.00
2017-09-23T03:38:11.145Z,93.00
2017-09-23T03:41:13.156Z,93.10
2017-09-23T03:44:15.727Z,93.20
2017-09-23T03:47:17.689Z,93.20
2017-09-23T03:50:20.145Z,93.20
2017-09-23T03:53:22.323Z,93.20
2017-09-23T03:56:24.639Z,93.10
2017-09-23T03:59:26.569Z,93.10
2017-09-23T04:02:28.956Z,93.10
2017-09-23T04:05:31.017Z,93.00
2017-09-23T04:08:33.364Z,93.00
2017-09-23T04:11:35.303Z,92.90
2017-09-23T04:14:37.604Z,92.90
2017-09-23T04:17:39.635Z,93.00
2017-09-23T04:20:42.050Z,93.10
2017-09-23T04:23:44.943Z,93.20
2017-09-23T04:26:47.299Z,93.20
2017-09-23T04:29:49.336Z,93.20
2017-09-23T04:32:51.646Z,93.20
2017-09-23T04:35:53.669Z,93.20
2017-09-23T04:38:56.025Z,93.20
2017-09-23T04:41:58.366Z,93.10
2017-09-23T04:45:00.740Z,93.10
2017-09-23T04:48:02.787Z,93.10
2017-09-23T04:51:05.099Z,93.10
2017-09-23T04:54:07.851Z,93.10
2017-09-23T04:57:10.159Z,93.10
2017-09-23T05:00:12.331Z,93.10
2017-09-23T05:03:14.679Z,93.10
2017-09-23T05:06:16.621Z,93.10
2017-09-23T05:09:18.975Z,93.30
2017-09-23T05:12:20.907Z,92.90
2017-09-23T05:15:23.170Z,93.00
2017-09-23T05:18:25.117Z,93.00
2017-09-23T05:21:27.477Z,93.10
2017-09-23T05:24:29.439Z,93.10
2017-09-23T05:27:31.810Z,93.00
2017-09-23T05:30:33.832Z,93.00
2017-09-23T05:33:36.193Z,93.00
2017-09-23T05:36:38.345Z,92.90
2017-09-23T05:39:40.706Z,92.90
2017-09-23T05:42:42.672Z,92.90
2017-09-23T05:45:44.961Z,92.90
2017-09-23T05:48:46.901Z,92.90
2017-09-23T05:51:49.300Z,93.00
2017-09-23T05:54:51.270Z,93.00
2017-09-23T05:57:53.641Z,93.10
2017-09-23T06:00:55.882Z,93.20
2017-09-23T06:03:58.324Z,93.20
2017-09-23T06:07:00.383Z,93.10
2017-09-23T06:10:02.755Z,93.10
2017-09-23T06:13:04.710Z,92.50
2017-09-23T06:16:07.048Z,92.30
2017-09-23T06:19:08.983Z,92.20
2017-09-23T06:22:11.356Z,91.90
2017-09-23T06:25:13.297Z,91.80
2017-09-23T06:28:15.865Z,91.40
2017-09-23T06:31:17.804Z,91.10
2017-09-23T06:34:20.086Z,90.70
2017-09-23T06:37:22.170Z,90.10
2017-09-23T06:40:24.489Z,88.50
2017-09-23T06:43:26.420Z,87.10
2017-09-23T06:46:28.724Z,85.10
2017-09-23T06:49:30.728Z,80.40
2017-09-23T06:52:33.020Z,74.10
2017-09-23T06:55:35.032Z,72.90
2017-09-23T06:58:37.329Z,74.00
2017-09-23T07:01:40.160Z,77.70
2017-09-23T07:04:42.530Z,76.80
2017-09-23T07:07:44.668Z,77.70
2017-09-23T07:10:47.048Z,78.00
2017-09-23T07:13:48.988Z,77.10
2017-09-23T07:16:51.349Z,75.40
2017-09-23T07:19:53.421Z,74.60
2017-09-23T07:22:55.751Z,73.50
2017-09-23T07:25:57.805Z,73.20
2017-09-23T07:29:00.151Z,73.40
2017-09-23T07:32:02.298Z,74.00
2017-09-23T07:35:04.760Z,74.80
2017-09-23T07:38:06.716Z,75.60
2017-09-23T07:41:09.090Z,76.50
2017-09-23T07:44:11.037Z,77.50
2017-09-23T07:47:14.200Z,79.70
2017-09-23T07:50:16.240Z,79.70
2017-09-23T07:53:18.514Z,80.40
2017-09-23T07:56:20.442Z,81.30
2017-09-23T07:59:22.812Z,81.80
2017-09-23T08:02:24.759Z,82.30
2017-09-23T08:05:27.111Z,83.00
2017-09-23T08:08:29.091Z,83.10
2017-09-23T08:11:31.406Z,83.00
2017-09-23T08:14:33.362Z,82.90
2017-09-23T08:17:35.706Z,82.30
2017-09-23T08:20:37.666Z,81.40
2017-09-23T08:23:40.015Z,80.10
2017-09-23T08:26:42.077Z,78.50
2017-09-23T08:29:44.445Z,75.90
2017-09-23T08:32:46.507Z,73.00
2017-09-23T08:35:48.848Z,65.50
2017-09-23T08:38:50.892Z,56.10
2017-09-23T08:41:53.247Z,49.40
2017-09-23T08:44:55.192Z,44.30
2017-09-23T08:47:57.570Z,40.90
2017-09-23T08:50:59.498Z,38.20
2017-09-23T08:54:01.792Z,35.90
2017-09-23T08:57:03.804Z,33.70
2017-09-23T09:00:06.280Z,31.60
2017-09-23T09:03:08.305Z,30.40
2017-09-23T09:06:10.664Z,30.40
2017-09-23T09:09:16.243Z,31.10
2017-09-23T09:12:18.556Z,30.70
2017-09-23T09:15:20.489Z,30.00
2017-09-23T09:18:23.527Z,28.30
2017-09-23T09:21:25.531Z,28.30
2017-09-23T09:24:27.812Z,27.70
2017-09-23T09:30:45.725Z,26.90
2017-09-23T09:33:47.763Z,25.90
2017-09-23T09:36:51.039Z,25.20
2017-09-23T09:39:52.983Z,24.60
2017-09-23T09:42:55.346Z,24.00
2017-09-23T09:45:57.272Z,24.60
2017-09-23T09:48:59.649Z,24.60
2017-09-23T09:52:01.624Z,24.40
2017-09-23T09:55:03.960Z,23.70
2017-09-23T09:58:05.894Z,23.40
2017-09-23T10:01:08.992Z,22.60
2017-09-23T10:04:10.932Z,22.90
2017-09-23T10:07:13.293Z,23.20
2017-09-23T10:10:15.235Z,24.00
2017-09-23T10:13:17.592Z,25.00
2017-09-23T10:16:19.536Z,26.20
2017-09-23T10:19:21.915Z,27.30
2017-09-23T10:22:23.942Z,26.60
2017-09-23T10:25:26.303Z,26.40
2017-09-23T10:28:28.245Z,25.70
2017-09-23T10:31:30.624Z,25.40
2017-09-23T10:34:32.659Z,26.90
2017-09-23T10:37:35.019Z,28.60
2017-09-23T10:40:36.958Z,30.40
2017-09-23T10:43:39.327Z,31.40
2017-09-23T10:46:41.371Z,31.20
2017-09-23T10:49:43.746Z,30.90
2017-09-23T10:52:45.697Z,28.80
2017-09-23T10:55:48.031Z,28.80
2017-09-23T10:58:49.981Z,29.80
2017-09-23T11:01:52.343Z,31.10
2017-09-23T11:04:54.296Z,32.30
2017-09-23T11:07:56.639Z,33.50
2017-09-23T11:10:58.601Z,33.80
2017-09-23T11:14:00.955Z,33.80
2017-09-23T11:17:02.996Z,33.00
2017-09-23T11:20:05.346Z,32.40
2017-09-23T11:23:07.318Z,31.90
2017-09-23T11:26:09.672Z,32.00
2017-09-23T11:29:11.711Z,30.40
2017-09-23T11:32:14.173Z,28.00
2017-09-23T11:35:16.137Z,27.40
2017-09-23T11:38:18.488Z,26.50
2017-09-23T11:41:20.538Z,25.20
2017-09-23T11:44:22.892Z,25.50
2017-09-23T11:47:25.661Z,26.10
2017-09-23T11:50:28.000Z,27.30
2017-09-23T11:53:29.961Z,28.50
2017-09-23T11:56:32.320Z,28.70
2017-09-23T11:59:34.286Z,29.40
2017-09-23T12:02:36.634Z,29.50
2017-09-23T12:05:38.662Z,29.20
2017-09-23T12:08:41.035Z,29.00
2017-09-23T12:11:42.971Z,29.20
2017-09-23T12:14:45.338Z,27.80
2017-09-23T12:17:47.390Z,26.00
2017-09-23T12:20:49.671Z,24.70
2017-09-23T12:23:51.708Z,25.00
2017-09-23T12:26:54.061Z,26.00
2017-09-23T12:29:56.098Z,27.90
2017-09-23T12:32:58.469Z,29.20
2017-09-23T12:36:00.519Z,28.40
2017-09-23T12:39:02.810Z,28.50
2017-09-23T12:42:04.833Z,27.30
2017-09-23T12:45:07.179Z,25.90
2017-09-23T12:48:09.226Z,25.50
2017-09-23T12:51:11.682Z,26.70
2017-09-23T12:54:13.631Z,28.90
2017-09-23T12:57:15.984Z,31.80
2017-09-23T13:00:17.944Z,35.20
2017-09-23T13:03:20.294Z,37.70
2017-09-23T13:06:22.242Z,40.70
2017-09-23T13:09:24.603Z,43.10
2017-09-23T13:12:26.547Z,45.30
2017-09-23T13:15:28.913Z,46.70
2017-09-23T13:18:30.855Z,47.70
2017-09-23T13:21:33.203Z,48.20
2017-09-23T13:24:35.151Z,48.20
2017-09-23T13:27:37.522Z,47.90
2017-09-23T13:30:39.454Z,47.30
2017-09-23T13:33:41.759Z,46.50
2017-09-23T13:36:43.764Z,45.30
2017-09-23T13:39:46.026Z,44.60
2017-09-23T13:42:47.969Z,45.50
2017-09-23T13:45:50.249Z,46.50
2017-09-23T13:48:52.206Z,47.40
2017-09-23T13:51:55.648Z,48.40
2017-09-23T13:54:57.589Z,49.10
2017-09-23T13:58:00.549Z,50.80
2017-09-23T14:01:03.253Z,51.90
2017-09-23T14:04:05.597Z,51.90
2017-09-23T14:07:07.568Z,52.30
2017-09-23T14:10:09.919Z,52.80
2017-09-23T14:13:11.955Z,53.30
2017-09-23T14:16:14.291Z,53.80
2017-09-23T14:19:16.988Z,54.70
2017-09-23T14:22:19.338Z,54.60
2017-09-23T14:25:21.295Z,55.00
2017-09-23T14:28:24.458Z,55.00
2017-09-23T14:31:26.483Z,56.20
2017-09-23T14:34:29.612Z,56.70
2017-09-23T14:37:31.638Z,56.70
2017-09-23T14:40:34.009Z,56.80
2017-09-23T14:43:35.945Z,56.80
2017-09-23T14:46:38.329Z,56.70
2017-09-23T14:49:40.291Z,56.70
2017-09-23T14:52:42.702Z,57.80
2017-09-23T14:55:44.660Z,59.00
2017-09-23T14:58:47.118Z,59.20
2017-09-23T15:01:49.055Z,59.80
2017-09-23T15:04:51.391Z,59.80
2017-09-23T15:07:53.374Z,61.10
2017-09-23T15:10:55.724Z,61.30
2017-09-23T15:13:57.691Z,61.60
2017-09-23T15:17:00.236Z,62.50
2017-09-23T15:20:02.194Z,63.00
2017-09-23T15:23:04.531Z,63.80
2017-09-23T15:26:06.467Z,64.00
2017-09-23T15:29:09.586Z,64.80
2017-09-23T15:32:11.519Z,64.80
2017-09-23T15:35:13.990Z,65.60
2017-09-23T15:38:16.023Z,66.70
2017-09-23T15:41:18.416Z,66.70
2017-09-23T15:44:20.439Z,66.50
2017-09-23T15:47:22.796Z,66.60
2017-09-23T15:50:24.743Z,66.80
2017-09-23T15:53:27.098Z,67.60
2017-09-23T15:56:29.039Z,68.10
2017-09-23T15:59:31.419Z,68.20
2017-09-23T16:02:33.473Z,68.50
2017-09-23T16:05:35.811Z,68.50
2017-09-23T16:08:37.851Z,68.30
2017-09-23T16:11:40.235Z,68.10
2017-09-23T16:14:42.259Z,68.20
2017-09-23T16:17:44.730Z,68.00
2017-09-23T16:20:46.659Z,68.80
2017-09-23T16:23:49.054Z,69.20
2017-09-23T16:26:50.982Z,69.60
2017-09-23T16:29:53.340Z,70.10
2017-09-23T16:32:55.287Z,69.80
2017-09-23T16:35:57.648Z,70.20
2017-09-23T16:38:59.699Z,70.20
2017-09-23T16:42:01.996Z,70.20
2017-09-23T16:45:04.918Z,70.40
2017-09-23T16:48:07.379Z,70.50
2017-09-23T16:51:09.326Z,70.40
2017-09-23T16:54:11.642Z,70.50
2017-09-23T16:57:14.367Z,71.80
2017-09-23T17:00:16.703Z,71.00
2017-09-23T17:03:18.788Z,70.80
2017-09-23T17:06:21.068Z,71.20
2017-09-23T17:09:23.030Z,71.40
2017-09-23T17:12:26.238Z,71.90
2017-09-23T17:15:28.192Z,71.80
2017-09-23T17:18:30.555Z,72.40
2017-09-23T17:21:32.505Z,72.80
2017-09-23T17:24:34.943Z,73.50
2017-09-23T17:27:37.015Z,74.10
2017-09-23T17:30:39.383Z,74.60
2017-09-23T17:33:41.415Z,74.90
2017-09-23T17:36:43.767Z,75.20
2017-09-23T17:39:45.702Z,75.40
2017-09-23T17:42:48.066Z,75.70
2017-09-23T17:45:50.068Z,76.10
2017-09-23T17:48:53.203Z,76.80
2017-09-23T17:51:55.154Z,76.70
2017-09-23T17:54:57.485Z,77.20
2017-09-23T17:57:59.565Z,77.60
2017-09-23T18:01:01.912Z,78.00
2017-09-23T18:04:04.642Z,79.30
2017-09-23T18:07:06.975Z,79.30
2017-09-23T18:10:08.920Z,79.80
2017-09-23T18:13:11.293Z,80.30
2017-09-23T18:16:13.322Z,80.70
2017-09-23T18:19:15.698Z,81.30
2017-09-23T18:22:17.676Z,81.60
2017-09-23T18:25:20.925Z,82.70
2017-09-23T18:28:22.881Z,82.60
2017-09-23T18:31:25.217Z,83.30
2017-09-23T18:34:27.167Z,83.80
2017-09-23T18:37:29.519Z,84.20
2017-09-23T18:40:31.672Z,84.60
2017-09-23T18:43:34.006Z,85.00
2017-09-23T18:46:36.852Z,85.40
2017-09-23T18:49:39.150Z,85.40
2017-09-23T18:52:41.112Z,86.40
2017-09-23T18:55:43.469Z,85.90
2017-09-23T18:58:45.432Z,86.20
2017-09-23T19:01:47.765Z,86.70
2017-09-23T19:04:49.724Z,87.00
2017-09-23T19:07:52.845Z,87.60
2017-09-23T19:10:55.661Z,87.80
2017-09-23T19:13:58.028Z,87.80
2017-09-23T19:17:00.081Z,88.00
2017-09-23T19:20:02.448Z,88.20
2017-09-23T19:23:04.476Z,88.30
2017-09-23T19:26:07.568Z,88.60
2017-09-23T19:29:09.586Z,88.70
2017-09-23T19:32:11.875Z,89.00
2017-09-23T19:35:13.891Z,89.10
2017-09-23T19:38:16.267Z,89.20
2017-09-23T19:41:18.316Z,89.20
2017-09-23T19:44:20.995Z,89.40
2017-09-23T19:47:23.012Z,89.40
2017-09-23T19:50:25.320Z,89.60
2017-09-23T19:53:27.293Z,89.90
2017-09-23T19:56:29.587Z,90.00
2017-09-23T19:59:31.855Z,90.00
2017-09-23T20:02:34.205Z,90.10
2017-09-23T20:05:37.377Z,90.10
2017-09-23T20:08:39.740Z,90.10
2017-09-23T20:11:41.770Z,90.20
2017-09-23T20:14:44.148Z,90.20
2017-09-23T20:17:46.080Z,90.30
2017-09-23T20:20:48.456Z,90.30
2017-09-23T20:23:50.463Z,90.30
2017-09-23T20:26:53.561Z,90.40
2017-09-23T20:29:55.513Z,90.40
2017-09-23T20:32:57.891Z,90.40
2017-09-23T20:35:59.926Z,90.40
2017-09-23T20:39:02.369Z,90.50
2017-09-23T20:42:04.321Z,90.40
2017-09-23T20:45:06.676Z,90.50
2017-09-23T20:48:08.701Z,90.60
2017-09-23T20:51:11.261Z,90.60
2017-09-23T20:54:13.236Z,90.70
2017-09-23T20:57:15.577Z,90.80
2017-09-23T21:00:17.624Z,90.80
2017-09-23T21:03:19.992Z,90.90
2017-09-23T21:06:22.031Z,91.00
2017-09-23T21:09:24.400Z,91.00
2017-09-23T21:12:26.441Z,91.10
2017-09-23T21:15:28.808Z,91.20
2017-09-23T21:18:30.848Z,91.30
2017-09-23T21:21:33.133Z,91.30
2017-09-23T21:24:35.155Z,91.30
2017-09-23T21:27:37.506Z,91.20
2017-09-23T21:30:39.613Z,91.20
2017-09-23T21:33:42.893Z,91.20
2017-09-23T21:36:45.612Z,91.30
2017-09-23T21:39:47.948Z,91.20
2017-09-23T21:42:49.880Z,91.30
2017-09-23T21:45:52.383Z,91.30
2017-09-23T21:48:54.321Z,91.30
2017-09-23T21:51:56.702Z,91.30
2017-09-23T21:54:58.726Z,91.30
2017-09-23T21:58:01.095Z,91.40
2017-09-23T22:01:03.046Z,91.30
2017-09-23T22:04:05.433Z,91.20
2017-09-23T22:07:08.168Z,91.30
2017-09-23T22:10:10.525Z,91.30
2017-09-23T22:13:12.496Z,91.30
2017-09-23T22:16:14.861Z,91.30
2017-09-23T22:19:16.862Z,91.30
2017-09-23T22:22:19.227Z,91.30
2017-09-23T22:25:21.168Z,91.30
2017-09-23T22:28:23.519Z,91.30
2017-09-23T22:31:25.482Z,91.30
2017-09-23T22:34:27.750Z,91.20
2017-09-23T22:37:29.755Z,91.20
2017-09-23T22:40:33.663Z,91.10
2017-09-23T22:43:35.629Z,91.20
2017-09-23T22:46:38.116Z,91.10
2017-09-23T22:49:40.172Z,91.10
2017-09-23T22:52:42.513Z,91.10
2017-09-23T22:55:44.479Z,91.10
2017-09-23T22:58:46.841Z,91.10
2017-09-23T23:01:48.778Z,91.10
2017-09-23T23:04:51.099Z,91.00
2017-09-23T23:07:53.060Z,91.00
2017-09-23T23:10:55.420Z,91.00
2017-09-23T23:13:57.471Z,91.00
2017-09-23T23:16:59.752Z,91.00
2017-09-23T23:20:01.776Z,91.00
2017-09-23T23:23:04.132Z,91.10
2017-09-23T23:26:06.195Z,91.10
2017-09-23T23:29:08.584Z,91.10
2017-09-23T23:32:11.577Z,91.10
2017-09-23T23:35:14.687Z,91.20
2017-09-23T23:38:16.735Z,91.20
2017-09-23T23:41:19.215Z,91.10
2017-09-23T23:44:21.362Z,91.10
2017-09-23T23:47:23.750Z,91.20
2017-09-23T23:50:25.799Z,91.10
2017-09-23T23:53:28.154Z,91.20
2017-09-23T23:56:30.982Z,91.20
2017-09-23T23:59:33.309Z,91.50
